sensor_id;sensor_type;location;lat;lon;timestamp;pressure;altitude;pressure_sealevel;temperature;humidity
4586;BME280;2305;50.118;8.952;2022-12-20T00:00:42;101139.88;;;2.22;100.00
4586;BME280;2305;50.118;8.952;2022-12-20T00:03:12;101139.81;;;2.23;100.00
4586;BME280;2305;50.118;8.952;2022-12-20T00:05:41;101132.88;;;2.24;100.00
4586;BME280;2305;50.118;8.952;2022-12-20T00:08:10;101132.00;;;2.23;100.00
4586;BME280;2305;50.118;8.952;2022-12-20T00:10:42;101122.53;;;2.22;100.00
4586;BME280;2305;50.118;8.952;2022-12-20T00:13:13;101126.88;;;2.22;100.00
4586;BME280;2305;50.118;8.952;2022-12-20T00:15:43;101112.97;;;2.23;100.00
4586;BME280;2305;50.118;8.952;2022-12-20T00:18:13;101104.28;;;2.24;100.00
4586;BME280;2305;50.118;8.952;2022-12-20T00:20:41;101099.88;;;2.26;100.00
4586;BME280;2305;50.118;8.952;2022-12-20T00:23:09;101097.38;;;2.23;100.00
4586;BME280;2305;50.118;8.952;2022-12-20T00:25:37;101093.94;;;2.22;100.00
4586;BME280;2305;50.118;8.952;2022-12-20T00:28:05;101099.19;;;2.21;100.00
4586;BME280;2305;50.118;8.952;2022-12-20T00:30:34;101100.03;;;2.21;100.00
4586;BME280;2305;50.118;8.952;2022-12-20T00:33:08;101093.13;;;2.20;100.00
4586;BME280;2305;50.118;8.952;2022-12-20T00:35:42;101088.94;;;2.16;100.00
4586;BME280;2305;50.118;8.952;2022-12-20T00:38:13;101095.88;;;2.17;100.00
4586;BME280;2305;50.118;8.952;2022-12-20T00:40:46;101087.97;;;2.19;100.00
4586;BME280;2305;50.118;8.952;2022-12-20T00:43:15;101091.41;;;2.21;100.00
4586;BME280;2305;50.118;8.952;2022-12-20T00:45:44;101073.22;;;2.21;100.00
4586;BME280;2305;50.118;8.952;2022-12-20T00:48:13;101081.84;;;2.21;100.00
4586;BME280;2305;50.118;8.952;2022-12-20T00:50:42;101084.44;;;2.21;100.00
4586;BME280;2305;50.118;8.952;2022-12-20T00:53:11;101082.69;;;2.22;100.00
4586;BME280;2305;50.118;8.952;2022-12-20T00:55:41;101088.69;;;2.24;100.00
4586;BME280;2305;50.118;8.952;2022-12-20T00:58:09;101080.03;;;2.23;100.00
4586;BME280;2305;50.118;8.952;2022-12-20T01:00:40;101074.91;;;2.22;100.00
4586;BME280;2305;50.118;8.952;2022-12-20T01:03:15;101074.16;;;2.18;100.00
4586;BME280;2305;50.118;8.952;2022-12-20T01:05:52;101077.66;;;2.17;100.00
4586;BME280;2305;50.118;8.952;2022-12-20T01:08:25;101074.25;;;2.15;100.00
4586;BME280;2305;50.118;8.952;2022-12-20T01:10:58;101071.59;;;2.17;100.00
4586;BME280;2305;50.118;8.952;2022-12-20T01:13:29;101073.28;;;2.18;100.00
4586;BME280;2305;50.118;8.952;2022-12-20T01:16:03;101069.78;;;2.19;100.00
4586;BME280;2305;50.118;8.952;2022-12-20T01:18:33;101080.25;;;2.17;100.00
4586;BME280;2305;50.118;8.952;2022-12-20T01:21:04;101069.91;;;2.16;100.00
4586;BME280;2305;50.118;8.952;2022-12-20T01:23:33;101078.66;;;2.13;100.00
4586;BME280;2305;50.118;8.952;2022-12-20T01:26:06;101076.84;;;2.15;100.00
4586;BME280;2305;50.118;8.952;2022-12-20T01:28:38;101079.44;;;2.15;100.00
4586;BME280;2305;50.118;8.952;2022-12-20T01:31:13;101084.59;;;2.17;100.00
4586;BME280;2305;50.118;8.952;2022-12-20T01:33:43;101078.50;;;2.18;100.00
4586;BME280;2305;50.118;8.952;2022-12-20T01:36:16;101082.75;;;2.20;100.00
4586;BME280;2305;50.118;8.952;2022-12-20T01:38:55;101085.34;;;2.20;100.00
4586;BME280;2305;50.118;8.952;2022-12-20T01:41:26;101084.44;;;2.21;100.00
4586;BME280;2305;50.118;8.952;2022-12-20T01:43:58;101080.09;;;2.22;100.00
4586;BME280;2305;50.118;8.952;2022-12-20T01:46:28;101074.09;;;2.20;100.00
4586;BME280;2305;50.118;8.952;2022-12-20T01:49:05;101076.81;;;2.17;100.00
4586;BME280;2305;50.118;8.952;2022-12-20T01:51:40;101070.75;;;2.16;100.00
4586;BME280;2305;50.118;8.952;2022-12-20T01:54:14;101065.50;;;2.18;100.00
4586;BME280;2305;50.118;8.952;2022-12-20T01:56:48;101060.31;;;2.18;100.00
4586;BME280;2305;50.118;8.952;2022-12-20T01:59:18;101060.25;;;2.19;100.00
4586;BME280;2305;50.118;8.952;2022-12-20T02:01:51;101059.34;;;2.20;100.00
4586;BME280;2305;50.118;8.952;2022-12-20T02:04:20;101058.50;;;2.20;100.00
4586;BME280;2305;50.118;8.952;2022-12-20T02:06:52;101056.75;;;2.20;100.00
4586;BME280;2305;50.118;8.952;2022-12-20T02:09:20;101053.19;;;2.23;100.00
4586;BME280;2305;50.118;8.952;2022-12-20T02:12:03;101059.31;;;2.22;100.00
4586;BME280;2305;50.118;8.952;2022-12-20T02:14:47;101060.13;;;2.22;100.00
4586;BME280;2305;50.118;8.952;2022-12-20T02:17:25;101050.63;;;2.21;100.00
4586;BME280;2305;50.118;8.952;2022-12-20T02:20:32;101050.63;;;2.21;100.00
4586;BME280;2305;50.118;8.952;2022-12-20T02:23:31;101048.03;;;2.21;100.00
4586;BME280;2305;50.118;8.952;2022-12-20T02:26:31;101035.03;;;2.21;100.00
4586;BME280;2305;50.118;8.952;2022-12-20T02:29:18;101029.69;;;2.26;100.00
4586;BME280;2305;50.118;8.952;2022-12-20T02:31:55;101014.06;;;2.26;100.00
4586;BME280;2305;50.118;8.952;2022-12-20T02:34:26;101019.44;;;2.21;100.00
4586;BME280;2305;50.118;8.952;2022-12-20T02:36:57;101008.13;;;2.22;100.00
4586;BME280;2305;50.118;8.952;2022-12-20T02:39:29;101019.22;;;2.27;100.00
4586;BME280;2305;50.118;8.952;2022-12-20T02:42:03;101015.78;;;2.27;100.00
4586;BME280;2305;50.118;8.952;2022-12-20T02:44:35;101009.69;;;2.28;100.00
4586;BME280;2305;50.118;8.952;2022-12-20T02:47:26;101005.50;;;2.24;100.00
4586;BME280;2305;50.118;8.952;2022-12-20T02:49:57;101003.69;;;2.26;100.00
4586;BME280;2305;50.118;8.952;2022-12-20T02:52:29;100983.84;;;2.23;100.00
4586;BME280;2305;50.118;8.952;2022-12-20T02:55:01;100983.00;;;2.23;100.00
4586;BME280;2305;50.118;8.952;2022-12-20T02:57:38;100984.75;;;2.22;100.00
4586;BME280;2305;50.118;8.952;2022-12-20T03:00:12;100983.91;;;2.22;100.00
4586;BME280;2305;50.118;8.952;2022-12-20T03:02:47;100984.00;;;2.19;100.00
4586;BME280;2305;50.118;8.952;2022-12-20T03:05:35;100975.25;;;2.21;100.00
4586;BME280;2305;50.118;8.952;2022-12-20T03:08:09;100972.56;;;2.24;100.00
4586;BME280;2305;50.118;8.952;2022-12-20T03:10:38;100967.38;;;2.24;100.00
4586;BME280;2305;50.118;8.952;2022-12-20T03:13:08;100971.75;;;2.22;100.00
4586;BME280;2305;50.118;8.952;2022-12-20T03:15:46;100966.56;;;2.22;100.00
4586;BME280;2305;50.118;8.952;2022-12-20T03:18:18;100969.16;;;2.22;100.00
4586;BME280;2305;50.118;8.952;2022-12-20T03:20:46;100971.66;;;2.25;100.00
4586;BME280;2305;50.118;8.952;2022-12-20T03:23:15;100963.72;;;2.28;100.00
4586;BME280;2305;50.118;8.952;2022-12-20T03:25:44;100971.53;;;2.28;100.00
4586;BME280;2305;50.118;8.952;2022-12-20T03:28:23;100983.56;;;2.31;100.00
4586;BME280;2305;50.118;8.952;2022-12-20T03:30:56;100980.97;;;2.31;100.00
4586;BME280;2305;50.118;8.952;2022-12-20T03:33:26;100972.31;;;2.30;100.00
4586;BME280;2305;50.118;8.952;2022-12-20T03:35:59;100969.47;;;2.36;100.00
4586;BME280;2305;50.118;8.952;2022-12-20T03:38:30;100966.66;;;2.42;100.00
4586;BME280;2305;50.118;8.952;2022-12-20T03:40:58;100957.75;;;2.48;100.00
4586;BME280;2305;50.118;8.952;2022-12-20T03:43:27;100962.19;;;2.46;100.00
4586;BME280;2305;50.118;8.952;2022-12-20T03:45:55;100960.50;;;2.45;100.00
4586;BME280;2305;50.118;8.952;2022-12-20T03:48:29;100963.97;;;2.45;100.00
4586;BME280;2305;50.118;8.952;2022-12-20T03:50:57;100967.38;;;2.46;100.00
4586;BME280;2305;50.118;8.952;2022-12-20T03:53:25;100960.50;;;2.45;100.00
4586;BME280;2305;50.118;8.952;2022-12-20T03:55:55;100965.69;;;2.45;100.00
4586;BME280;2305;50.118;8.952;2022-12-20T03:58:23;100963.03;;;2.46;100.00
4586;BME280;2305;50.118;8.952;2022-12-20T04:00:52;100956.97;;;2.46;100.00
4586;BME280;2305;50.118;8.952;2022-12-20T04:03:41;100962.13;;;2.47;100.00
4586;BME280;2305;50.118;8.952;2022-12-20T04:06:11;100962.13;;;2.47;100.00
4586;BME280;2305;50.118;8.952;2022-12-20T04:08:40;100953.47;;;2.47;100.00
4586;BME280;2305;50.118;8.952;2022-12-20T04:11:10;100941.34;;;2.47;100.00
4586;BME280;2305;50.118;8.952;2022-12-20T04:14:04;100933.47;;;2.49;100.00
4586;BME280;2305;50.118;8.952;2022-12-20T04:16:34;100941.28;;;2.49;100.00
4586;BME280;2305;50.118;8.952;2022-12-20T04:19:05;100950.78;;;2.50;100.00
4586;BME280;2305;50.118;8.952;2022-12-20T04:21:39;100950.81;;;2.48;100.00
4586;BME280;2305;50.118;8.952;2022-12-20T04:24:07;100965.56;;;2.48;100.00
4586;BME280;2305;50.118;8.952;2022-12-20T04:26:42;100961.22;;;2.48;100.00
4586;BME280;2305;50.118;8.952;2022-12-20T04:29:12;100952.66;;;2.46;100.00
4586;BME280;2305;50.118;8.952;2022-12-20T04:31:44;100960.38;;;2.48;100.00
4586;BME280;2305;50.118;8.952;2022-12-20T04:34:16;100957.72;;;2.49;100.00
4586;BME280;2305;50.118;8.952;2022-12-20T04:36:45;100946.41;;;2.50;100.00
4586;BME280;2305;50.118;8.952;2022-12-20T04:39:22;100950.69;;;2.51;100.00
4586;BME280;2305;50.118;8.952;2022-12-20T04:42:10;100946.31;;;2.53;100.00
4586;BME280;2305;50.118;8.952;2022-12-20T04:44:39;100944.47;;;2.55;100.00
4586;BME280;2305;50.118;8.952;2022-12-20T04:47:12;100941.88;;;2.55;100.00
4586;BME280;2305;50.118;8.952;2022-12-20T04:49:44;100940.06;;;2.57;100.00
4586;BME280;2305;50.118;8.952;2022-12-20T04:52:12;100941.88;;;2.55;100.00
4586;BME280;2305;50.118;8.952;2022-12-20T04:55:04;100930.63;;;2.55;100.00
4586;BME280;2305;50.118;8.952;2022-12-20T04:57:36;100924.59;;;2.54;100.00
4586;BME280;2305;50.118;8.952;2022-12-20T05:00:09;100913.47;;;2.51;100.00
4586;BME280;2305;50.118;8.952;2022-12-20T05:02:42;100905.69;;;2.49;100.00
4586;BME280;2305;50.118;8.952;2022-12-20T05:05:16;100913.47;;;2.51;100.00
4586;BME280;2305;50.118;8.952;2022-12-20T05:07:55;100910.84;;;2.51;100.00
4586;BME280;2305;50.118;8.952;2022-12-20T05:10:24;100928.19;;;2.50;100.00
4586;BME280;2305;50.118;8.952;2022-12-20T05:12:57;100935.91;;;2.53;100.00
4586;BME280;2305;50.118;8.952;2022-12-20T05:15:38;100930.63;;;2.55;100.00
4586;BME280;2305;50.118;8.952;2022-12-20T05:18:09;100920.09;;;2.58;100.00
4586;BME280;2305;50.118;8.952;2022-12-20T05:20:56;100922.75;;;2.56;100.00
4586;BME280;2305;50.118;8.952;2022-12-20T05:23:45;100920.03;;;2.59;100.00
4586;BME280;2305;50.118;8.952;2022-12-20T05:26:36;100925.22;;;2.59;100.00
4586;BME280;2305;50.118;8.952;2022-12-20T05:29:08;100921.75;;;2.60;100.00
4586;BME280;2305;50.118;8.952;2022-12-20T05:31:36;100925.13;;;2.62;100.00
4586;BME280;2305;50.118;8.952;2022-12-20T05:34:05;100924.88;;;2.68;100.00
4586;BME280;2305;50.118;8.952;2022-12-20T05:36:37;100926.56;;;2.69;100.00
4586;BME280;2305;50.118;8.952;2022-12-20T05:39:08;100920.22;;;2.76;100.00
4586;BME280;2305;50.118;8.952;2022-12-20T05:41:41;100923.72;;;2.75;100.00
4586;BME280;2305;50.118;8.952;2022-12-20T05:44:10;100929.72;;;2.77;100.00
4586;BME280;2305;50.118;8.952;2022-12-20T05:46:47;100932.31;;;2.77;100.00
4586;BME280;2305;50.118;8.952;2022-12-20T05:49:22;100931.41;;;2.78;100.00
4586;BME280;2305;50.118;8.952;2022-12-20T05:51:55;100930.56;;;2.78;100.00
4586;BME280;2305;50.118;8.952;2022-12-20T05:54:26;100924.66;;;2.74;100.00
4586;BME280;2305;50.118;8.952;2022-12-20T05:57:08;100918.53;;;2.75;100.00
4586;BME280;2305;50.118;8.952;2022-12-20T05:59:41;100921.00;;;2.78;100.00
4586;BME280;2305;50.118;8.952;2022-12-20T06:02:17;100919.31;;;2.77;100.00
4586;BME280;2305;50.118;8.952;2022-12-20T06:04:49;100935.78;;;2.78;100.00
4586;BME280;2305;50.118;8.952;2022-12-20T06:07:25;100929.75;;;2.76;100.00
4586;BME280;2305;50.118;8.952;2022-12-20T06:09:57;100921.31;;;2.71;100.00
4586;BME280;2305;50.118;8.952;2022-12-20T06:12:38;100911.75;;;2.71;100.00
4586;BME280;2305;50.118;8.952;2022-12-20T06:15:08;100909.03;;;2.74;100.00
4586;BME280;2305;50.118;8.952;2022-12-20T06:17:37;100899.41;;;2.76;100.00
4586;BME280;2305;50.118;8.952;2022-12-20T06:20:08;100898.53;;;2.76;100.00
4586;BME280;2305;50.118;8.952;2022-12-20T06:22:43;100890.75;;;2.76;100.00
4586;BME280;2305;50.118;8.952;2022-12-20T06:25:13;100889.78;;;2.78;100.00
4586;BME280;2305;50.118;8.952;2022-12-20T06:27:41;100897.56;;;2.78;100.00
4586;BME280;2305;50.118;8.952;2022-12-20T06:30:15;100891.59;;;2.76;100.00
4586;BME280;2305;50.118;8.952;2022-12-20T06:32:53;100879.69;;;2.71;100.00
4586;BME280;2305;50.118;8.952;2022-12-20T06:35:22;100885.88;;;2.68;100.00
4586;BME280;2305;50.118;8.952;2022-12-20T06:37:58;100876.28;;;2.69;100.00
4586;BME280;2305;50.118;8.952;2022-12-20T06:40:30;100874.66;;;2.66;100.00
4586;BME280;2305;50.118;8.952;2022-12-20T06:42:59;100872.91;;;2.67;100.00
4586;BME280;2305;50.118;8.952;2022-12-20T06:45:29;100872.00;;;2.68;100.00
4586;BME280;2305;50.118;8.952;2022-12-20T06:48:07;100863.28;;;2.69;100.00
4586;BME280;2305;50.118;8.952;2022-12-20T06:50:38;100866.84;;;2.66;100.00
4586;BME280;2305;50.118;8.952;2022-12-20T06:53:11;100855.63;;;2.66;100.00
4586;BME280;2305;50.118;8.952;2022-12-20T06:55:42;100870.50;;;2.62;100.00
4586;BME280;2305;50.118;8.952;2022-12-20T06:58:10;100869.59;;;2.63;100.00
4586;BME280;2305;50.118;8.952;2022-12-20T07:00:41;100870.44;;;2.64;100.00
4586;BME280;2305;50.118;8.952;2022-12-20T07:03:09;100886.84;;;2.66;100.00
4586;BME280;2305;50.118;8.952;2022-12-20T07:05:38;100903.22;;;2.68;100.00
4586;BME280;2305;50.118;8.952;2022-12-20T07:08:11;100903.75;;;2.76;100.00
4586;BME280;2305;50.118;8.952;2022-12-20T07:10:41;100901.94;;;2.78;100.00
4586;BME280;2305;50.118;8.952;2022-12-20T07:13:14;100899.03;;;2.85;100.00
4586;BME280;2305;50.118;8.952;2022-12-20T07:15:45;100901.25;;;2.94;100.00
4586;BME280;2305;50.118;8.952;2022-12-20T07:18:13;100903.00;;;2.94;100.00
4586;BME280;2305;50.118;8.952;2022-12-20T07:20:41;100899.31;;;2.99;100.00
4586;BME280;2305;50.118;8.952;2022-12-20T07:23:11;100889.56;;;3.04;100.00
4586;BME280;2305;50.118;8.952;2022-12-20T07:25:42;100885.84;;;3.10;100.00
4586;BME280;2305;50.118;8.952;2022-12-20T07:28:13;100908.25;;;3.14;100.00
4586;BME280;2305;50.118;8.952;2022-12-20T07:30:47;100901.97;;;3.18;100.00
4586;BME280;2305;50.118;8.952;2022-12-20T07:33:15;100896.72;;;3.19;100.00
4586;BME280;2305;50.118;8.952;2022-12-20T07:35:44;100887.41;;;3.14;100.00
4586;BME280;2305;50.118;8.952;2022-12-20T07:38:29;100883.28;;;3.08;100.00
4586;BME280;2305;50.118;8.952;2022-12-20T07:40:57;100870.81;;;3.16;100.00
4586;BME280;2305;50.118;8.952;2022-12-20T07:43:26;100872.56;;;3.16;100.00
4586;BME280;2305;50.118;8.952;2022-12-20T07:45:55;100867.31;;;3.17;100.00
4586;BME280;2305;50.118;8.952;2022-12-20T07:48:26;100864.63;;;3.19;100.00
4586;BME280;2305;50.118;8.952;2022-12-20T07:51:00;100857.66;;;3.19;100.00
4586;BME280;2305;50.118;8.952;2022-12-20T07:53:33;100855.06;;;3.19;100.00
4586;BME280;2305;50.118;8.952;2022-12-20T07:56:05;100852.47;;;3.19;100.00
4586;BME280;2305;50.118;8.952;2022-12-20T07:58:36;100846.34;;;3.20;100.00
4586;BME280;2305;50.118;8.952;2022-12-20T08:01:10;100848.22;;;3.17;100.00
4586;BME280;2305;50.118;8.952;2022-12-20T08:03:44;100846.53;;;3.16;100.00
4586;BME280;2305;50.118;8.952;2022-12-20T08:06:16;100855.06;;;3.19;100.00
4586;BME280;2305;50.118;8.952;2022-12-20T08:08:51;100857.47;;;3.24;100.00
4586;BME280;2305;50.118;8.952;2022-12-20T08:11:21;100856.50;;;3.26;100.00
4586;BME280;2305;50.118;8.952;2022-12-20T08:13:53;100859.09;;;3.26;100.00
4586;BME280;2305;50.118;8.952;2022-12-20T08:16:24;100851.22;;;3.28;100.00
4586;BME280;2305;50.118;8.952;2022-12-20T08:18:55;100838.00;;;3.32;100.00
4586;BME280;2305;50.118;8.952;2022-12-20T08:21:26;100849.13;;;3.36;100.00
4586;BME280;2305;50.118;8.952;2022-12-20T08:23:56;100827.38;;;3.37;100.00
4586;BME280;2305;50.118;8.952;2022-12-20T08:26:25;100819.50;;;3.38;100.00
4586;BME280;2305;50.118;8.952;2022-12-20T08:28:53;100820.97;;;3.44;100.00
4586;BME280;2305;50.118;8.952;2022-12-20T08:31:22;100814.69;;;3.48;100.00
4586;BME280;2305;50.118;8.952;2022-12-20T08:33:53;100812.81;;;3.51;100.00
4586;BME280;2305;50.118;8.952;2022-12-20T08:36:25;100817.03;;;3.54;100.00
4586;BME280;2305;50.118;8.952;2022-12-20T08:39:01;100827.19;;;3.60;100.00
4586;BME280;2305;50.118;8.952;2022-12-20T08:41:32;100831.41;;;3.62;100.00
4586;BME280;2305;50.118;8.952;2022-12-20T08:44:03;100832.84;;;3.69;100.00
4586;BME280;2305;50.118;8.952;2022-12-20T08:46:33;100833.38;;;3.76;100.00
4586;BME280;2305;50.118;8.952;2022-12-20T08:49:02;100816.56;;;3.83;100.00
4586;BME280;2305;50.118;8.952;2022-12-20T08:51:34;100813.66;;;3.89;100.00
4586;BME280;2305;50.118;8.952;2022-12-20T08:54:06;100815.13;;;3.94;100.00
4586;BME280;2305;50.118;8.952;2022-12-20T08:56:39;100820.16;;;3.99;100.00
4586;BME280;2305;50.118;8.952;2022-12-20T08:59:07;100811.31;;;4.01;100.00
4586;BME280;2305;50.118;8.952;2022-12-20T09:01:35;100814.63;;;4.05;100.00
4586;BME280;2305;50.118;8.952;2022-12-20T09:04:04;100815.56;;;4.04;100.00
4586;BME280;2305;50.118;8.952;2022-12-20T09:06:33;100811.25;;;4.03;100.00
4586;BME280;2305;50.118;8.952;2022-12-20T09:09:06;100801.69;;;4.03;100.00
4586;BME280;2305;50.118;8.952;2022-12-20T09:11:34;100814.78;;;4.02;100.00
4586;BME280;2305;50.118;8.952;2022-12-20T09:14:03;100820.00;;;4.02;100.00
4586;BME280;2305;50.118;8.952;2022-12-20T09:16:32;100829.56;;;4.01;100.00
4586;BME280;2305;50.118;8.952;2022-12-20T09:19:01;100825.16;;;4.03;100.00
4586;BME280;2305;50.118;8.952;2022-12-20T09:21:32;100834.50;;;4.07;100.00
4586;BME280;2305;50.118;8.952;2022-12-20T09:24:01;100843.88;;;4.11;100.00
4586;BME280;2305;50.118;8.952;2022-12-20T09:26:32;100837.47;;;4.18;100.00
4586;BME280;2305;50.118;8.952;2022-12-20T09:29:01;100836.31;;;4.23;100.00
4586;BME280;2305;50.118;8.952;2022-12-20T09:31:31;100825.75;;;4.27;100.00
4586;BME280;2305;50.118;8.952;2022-12-20T09:33:59;100818.75;;;4.27;100.00
4586;BME280;2305;50.118;8.952;2022-12-20T09:36:29;100813.47;;;4.28;100.00
4586;BME280;2305;50.118;8.952;2022-12-20T09:39:00;100809.88;;;4.31;100.00
4586;BME280;2305;50.118;8.952;2022-12-20T09:41:36;100814.19;;;4.32;100.00
4586;BME280;2305;50.118;8.952;2022-12-20T09:44:14;100811.28;;;4.38;100.00
4586;BME280;2305;50.118;8.952;2022-12-20T09:46:50;100811.06;;;4.42;100.00
4586;BME280;2305;50.118;8.952;2022-12-20T09:49:26;100804.00;;;4.44;100.00
4586;BME280;2305;50.118;8.952;2022-12-20T09:52:13;100803.84;;;4.47;100.00
4586;BME280;2305;50.118;8.952;2022-12-20T09:54:55;100813.22;;;4.51;100.00
4586;BME280;2305;50.118;8.952;2022-12-20T09:57:51;100808.69;;;4.55;100.00
4586;BME280;2305;50.118;8.952;2022-12-20T10:00:26;100785.97;;;4.57;100.00
4586;BME280;2305;50.118;8.952;2022-12-20T10:02:56;100779.91;;;4.56;100.00
4586;BME280;2305;50.118;8.952;2022-12-20T10:05:43;100778.00;;;4.60;100.00
4586;BME280;2305;50.118;8.952;2022-12-20T10:08:23;100780.44;;;4.63;100.00
4586;BME280;2305;50.118;8.952;2022-12-20T10:10:58;100772.47;;;4.66;100.00
4586;BME280;2305;50.118;8.952;2022-12-20T10:13:46;100776.53;;;4.71;100.00
4586;BME280;2305;50.118;8.952;2022-12-20T10:16:31;100775.38;;;4.77;100.00
4586;BME280;2305;50.118;8.952;2022-12-20T10:19:11;100774.31;;;4.81;100.00
4586;BME280;2305;50.118;8.952;2022-12-20T10:21:47;100769.84;;;4.83;100.00
4586;BME280;2305;50.118;8.952;2022-12-20T10:24:20;100756.72;;;4.84;100.00
4586;BME280;2305;50.118;8.952;2022-12-20T10:26:51;100757.47;;;4.86;100.00
4586;BME280;2305;50.118;8.952;2022-12-20T10:29:26;100755.78;;;4.85;100.00
4586;BME280;2305;50.118;8.952;2022-12-20T10:31:58;100755.72;;;4.87;100.00
4586;BME280;2305;50.118;8.952;2022-12-20T10:34:27;100746.13;;;4.87;100.00
4586;BME280;2305;50.118;8.952;2022-12-20T10:37:10;100745.19;;;4.88;100.00
4586;BME280;2305;50.118;8.952;2022-12-20T10:39:42;100734.66;;;4.90;100.00
4586;BME280;2305;50.118;8.952;2022-12-20T10:42:28;100748.59;;;4.90;100.00
4586;BME280;2305;50.118;8.952;2022-12-20T10:45:00;100741.50;;;4.92;100.00
4586;BME280;2305;50.118;8.952;2022-12-20T10:47:41;100743.00;;;4.96;100.00
4586;BME280;2305;50.118;8.952;2022-12-20T10:50:14;100729.81;;;4.99;100.00
4586;BME280;2305;50.118;8.952;2022-12-20T10:52:45;100741.03;;;5.01;100.00
4586;BME280;2305;50.118;8.952;2022-12-20T10:55:33;100729.56;;;5.04;100.00
4586;BME280;2305;50.118;8.952;2022-12-20T10:58:04;100724.34;;;5.04;100.00
4586;BME280;2305;50.118;8.952;2022-12-20T11:00:36;100715.59;;;5.05;100.00
4586;BME280;2305;50.118;8.952;2022-12-20T11:03:11;100712.91;;;5.06;100.00
4586;BME280;2305;50.118;8.952;2022-12-20T11:05:53;100704.91;;;5.09;100.00
4586;BME280;2305;50.118;8.952;2022-12-20T11:08:22;100697.84;;;5.11;100.00
4586;BME280;2305;50.118;8.952;2022-12-20T11:11:16;100707.00;;;5.18;100.00
4586;BME280;2305;50.118;8.952;2022-12-20T11:13:45;100694.63;;;5.22;100.00
4586;BME280;2305;50.118;8.952;2022-12-20T11:16:28;100688.41;;;5.24;100.00
4586;BME280;2305;50.118;8.952;2022-12-20T11:19:15;100690.63;;;5.32;100.00
4586;BME280;2305;50.118;8.952;2022-12-20T11:21:56;100684.22;;;5.37;100.00
4586;BME280;2305;50.118;8.952;2022-12-20T11:24:32;100689.19;;;5.42;100.00
4586;BME280;2305;50.118;8.952;2022-12-20T11:27:12;100688.09;;;5.46;100.00
4586;BME280;2305;50.118;8.952;2022-12-20T11:29:58;100684.53;;;5.47;100.00
4586;BME280;2305;50.118;8.952;2022-12-20T11:32:41;100676.63;;;5.48;100.00
4586;BME280;2305;50.118;8.952;2022-12-20T11:35:18;100669.53;;;5.50;100.00
4586;BME280;2305;50.118;8.952;2022-12-20T11:37:57;100665.75;;;5.56;100.00
4586;BME280;2305;50.118;8.952;2022-12-20T11:40:41;100663.72;;;5.61;100.00
4586;BME280;2305;50.118;8.952;2022-12-20T11:43:33;100658.16;;;5.67;100.00
4586;BME280;2305;50.118;8.952;2022-12-20T11:46:38;100670.22;;;5.69;100.00
4586;BME280;2305;50.118;8.952;2022-12-20T11:49:36;100657.72;;;5.74;100.00
4586;BME280;2305;50.118;8.952;2022-12-20T11:52:18;100660.06;;;5.79;100.00
4586;BME280;2305;50.118;8.952;2022-12-20T11:55:00;100655.09;;;5.90;100.00
4586;BME280;2305;50.118;8.952;2022-12-20T11:57:38;100640.69;;;5.98;100.00
4586;BME280;2305;50.118;8.952;2022-12-20T12:00:31;100635.91;;;6.05;100.00
4586;BME280;2305;50.118;8.952;2022-12-20T12:03:09;100643.50;;;6.09;100.00
4586;BME280;2305;50.118;8.952;2022-12-20T12:05:45;100633.03;;;6.09;100.00
4586;BME280;2305;50.118;8.952;2022-12-20T12:08:18;100625.38;;;6.06;100.00
4586;BME280;2305;50.118;8.952;2022-12-20T12:10:53;100628.06;;;6.05;100.00
4586;BME280;2305;50.118;8.952;2022-12-20T12:13:29;100628.16;;;6.03;100.00
4586;BME280;2305;50.118;8.952;2022-12-20T12:16:04;100630.88;;;6.02;100.00
4586;BME280;2305;50.118;8.952;2022-12-20T12:18:35;100629.94;;;6.03;100.00
4586;BME280;2305;50.118;8.952;2022-12-20T12:21:10;100622.09;;;6.03;100.00
4586;BME280;2305;50.118;8.952;2022-12-20T12:23:49;100615.06;;;6.03;100.00
4586;BME280;2305;50.118;8.952;2022-12-20T12:26:24;100611.44;;;6.06;100.00
4586;BME280;2305;50.118;8.952;2022-12-20T12:28:53;100613.91;;;6.09;100.00
4586;BME280;2305;50.118;8.952;2022-12-20T12:31:26;100625.09;;;6.11;100.00
4586;BME280;2305;50.118;8.952;2022-12-20T12:34:06;100617.84;;;6.16;100.00
4586;BME280;2305;50.118;8.952;2022-12-20T12:36:47;100622.88;;;6.19;100.00
4586;BME280;2305;50.118;8.952;2022-12-20T12:39:50;100611.41;;;6.21;100.00
4586;BME280;2305;50.118;8.952;2022-12-20T12:45:46;100599.91;;;6.24;100.00
4586;BME280;2305;50.118;8.952;2022-12-20T12:48:21;100595.63;;;6.23;100.00
4586;BME280;2305;50.118;8.952;2022-12-20T12:50:56;100591.31;;;6.22;100.00
4586;BME280;2305;50.118;8.952;2022-12-20T12:53:33;100593.94;;;6.22;100.00
4586;BME280;2305;50.118;8.952;2022-12-20T12:56:30;100600.84;;;6.23;100.00
4586;BME280;2305;50.118;8.952;2022-12-20T12:59:39;100612.13;;;6.23;100.00
4586;BME280;2305;50.118;8.952;2022-12-20T13:02:23;100608.50;;;6.26;100.00
4586;BME280;2305;50.118;8.952;2022-12-20T13:04:57;100604.00;;;6.28;100.00
4586;BME280;2305;50.118;8.952;2022-12-20T13:07:29;100596.00;;;6.31;100.00
4586;BME280;2305;50.118;8.952;2022-12-20T13:13:22;100579.72;;;6.26;100.00
4586;BME280;2305;50.118;8.952;2022-12-20T13:16:25;100583.47;;;6.22;100.00
4586;BME280;2305;50.118;8.952;2022-12-20T13:19:29;100556.53;;;6.20;100.00
4586;BME280;2305;50.118;8.952;2022-12-20T13:22:18;100546.84;;;6.22;100.00
4586;BME280;2305;50.118;8.952;2022-12-20T13:24:54;100550.19;;;6.24;100.00
4586;BME280;2305;50.118;8.952;2022-12-20T13:27:34;100550.00;;;6.27;100.00
4586;BME280;2305;50.118;8.952;2022-12-20T13:30:26;100556.75;;;6.31;100.00
4586;BME280;2305;50.118;8.952;2022-12-20T13:33:22;100552.25;;;6.33;100.00
4586;BME280;2305;50.118;8.952;2022-12-20T13:35:58;100553.94;;;6.34;100.00
4586;BME280;2305;50.118;8.952;2022-12-20T13:38:48;100545.34;;;6.32;100.00
4586;BME280;2305;50.118;8.952;2022-12-20T13:41:29;100552.44;;;6.30;100.00
4586;BME280;2305;50.118;8.952;2022-12-20T13:44:33;100548.31;;;6.26;100.00
4586;BME280;2305;50.118;8.952;2022-12-20T13:47:16;100552.06;;;6.22;100.00
4586;BME280;2305;50.118;8.952;2022-12-20T13:49:49;100547.75;;;6.21;100.00
4586;BME280;2305;50.118;8.952;2022-12-20T13:52:26;100552.06;;;6.22;100.00
4586;BME280;2305;50.118;8.952;2022-12-20T13:54:57;100560.59;;;6.25;100.00
4586;BME280;2305;50.118;8.952;2022-12-20T13:57:30;100569.09;;;6.29;100.00